Time;durP1;ratioP1;P1;durP2;ratioP2;P2;SDS_P1;SDS_P2;PMS_P1;PMS_P2;Temp;Humidity;BMP_temperature;BMP_pressure;BME280_temperature;BME280_humidity;BME280_pressure;Samples;Min_cycle;Max_cycle;Signal;HPM_P1;HPM_P2
2023/10/01 00:00:26;;;;;;;244.10;83.30;;;;;;;;;;4994603;28;20443;-46
2023/10/01 00:02:52;;;;;;;243.07;81.73;;;;;;;;;;4975456;28;20421;-48
2023/10/01 00:05:22;;;;;;;242.43;80.20;;;;;;;;;;4991460;28;20420;-47
2023/10/01 00:07:49;;;;;;;241.53;82.03;;;;;;;;;;4990718;28;20411;-48
2023/10/01 00:10:15;;;;;;;243.07;80.47;;;;;;;;;;4994200;28;20407;-47
2023/10/01 00:12:44;;;;;;;246.03;85.00;;;;;;;;;;4989836;28;20517;-47
2023/10/01 00:15:11;;;;;;;245.83;84.07;;;;;;;;;;4976170;28;20447;-48
2023/10/01 00:17:38;;;;;;;243.33;83.00;;;;;;;;;;4994743;28;20416;-48
2023/10/01 00:20:23;;;;;;;244.70;81.83;;;;;;;;;;4977768;28;20924;-49
2023/10/01 00:23:02;;;;;;;243.23;81.07;;;;;;;;;;4991625;28;21037;-48
2023/10/01 00:25:29;;;;;;;243.87;80.67;;;;;;;;;;4994438;28;20506;-47
2023/10/01 00:27:55;;;;;;;242.43;81.20;;;;;;;;;;4994234;28;20406;-48
2023/10/01 00:30:22;;;;;;;245.37;82.57;;;;;;;;;;4994392;28;20405;-47
2023/10/01 00:32:48;;;;;;;244.17;82.07;;;;;;;;;;4989975;28;20431;-48
2023/10/01 00:35:14;;;;;;;243.80;81.77;;;;;;;;;;4994125;28;20396;-48
2023/10/01 00:37:40;;;;;;;245.20;83.90;;;;;;;;;;4994039;28;20418;-46
2023/10/01 00:40:08;;;;;;;241.83;78.47;;;;;;;;;;4994560;28;20938;-48
2023/10/01 00:42:35;;;;;;;243.30;83.97;;;;;;;;;;4993248;28;20525;-47
2023/10/01 00:45:07;;;;;;;243.60;80.43;;;;;;;;;;4994138;28;20834;-46
2023/10/01 00:47:33;;;;;;;245.53;83.97;;;;;;;;;;4994188;28;20411;-48
2023/10/01 00:50:00;;;;;;;245.13;83.37;;;;;;;;;;4993908;28;20606;-48
2023/10/01 00:52:28;;;;;;;243.47;82.87;;;;;;;;;;4993615;28;20931;-46
2023/10/01 00:54:55;;;;;;;244.87;84.63;;;;;;;;;;4993898;28;20419;-46
2023/10/01 00:57:21;;;;;;;244.77;82.60;;;;;;;;;;4993658;28;20502;-46
2023/10/01 00:59:48;;;;;;;244.00;81.97;;;;;;;;;;4993635;28;20404;-48
2023/10/01 01:02:15;;;;;;;246.07;83.93;;;;;;;;;;4982195;28;20481;-46
2023/10/01 01:04:45;;;;;;;245.57;81.20;;;;;;;;;;4993002;28;20778;-48
2023/10/01 01:07:20;;;;;;;244.33;83.43;;;;;;;;;;4993475;28;20444;-47
2023/10/01 01:09:48;;;;;;;243.60;79.77;;;;;;;;;;4993501;28;20422;-46
2023/10/01 01:12:18;;;;;;;240.30;77.67;;;;;;;;;;4992577;28;20518;-47
2023/10/01 01:14:44;;;;;;;243.30;82.83;;;;;;;;;;4993589;28;20476;-47
2023/10/01 01:17:11;;;;;;;241.97;78.70;;;;;;;;;;4993417;28;20423;-47
2023/10/01 01:19:37;;;;;;;245.23;83.77;;;;;;;;;;4993360;28;20411;-47
2023/10/01 01:22:03;;;;;;;244.87;82.13;;;;;;;;;;4992984;28;20466;-47
2023/10/01 01:24:29;;;;;;;242.07;79.47;;;;;;;;;;4993128;28;20448;-47
2023/10/01 01:27:00;;;;;;;243.97;82.10;;;;;;;;;;4993215;28;20408;-47
2023/10/01 01:29:34;;;;;;;244.13;82.33;;;;;;;;;;4993310;28;20420;-46
2023/10/01 01:32:07;;;;;;;244.10;82.13;;;;;;;;;;4992942;28;20416;-46
2023/10/01 01:34:36;;;;;;;242.50;81.27;;;;;;;;;;4993049;28;20426;-47
2023/10/01 01:37:06;;;;;;;244.07;83.60;;;;;;;;;;4993668;28;20521;-48
2023/10/01 01:39:48;;;;;;;242.50;80.40;;;;;;;;;;4993031;28;20412;-48
2023/10/01 01:42:21;;;;;;;241.30;78.30;;;;;;;;;;4992505;28;20906;-48
2023/10/01 01:45:15;;;;;;;245.67;83.30;;;;;;;;;;4992833;28;20435;-49
2023/10/01 01:47:36;;;;;;;243.23;79.70;;;;;;;;;;4985218;28;20411;-48
2023/10/01 01:50:17;;;;;;;242.57;80.10;;;;;;;;;;4992835;28;20411;-48
2023/10/01 01:52:44;;;;;;;242.67;79.33;;;;;;;;;;4986102;28;20852;-48
2023/10/01 01:55:23;;;;;;;243.77;80.87;;;;;;;;;;4993112;28;20498;-46
2023/10/01 01:58:02;;;;;;;241.37;80.47;;;;;;;;;;4992697;28;20407;-47
2023/10/01 02:00:31;;;;;;;244.13;80.93;;;;;;;;;;4992622;28;20813;-48
2023/10/01 02:03:02;;;;;;;243.47;82.00;;;;;;;;;;4992504;28;20435;-48
2023/10/01 02:05:29;;;;;;;246.07;83.13;;;;;;;;;;4992580;28;21132;-47
2023/10/01 02:07:56;;;;;;;243.57;81.47;;;;;;;;;;4992445;28;20442;-48
2023/10/01 02:10:31;;;;;;;242.57;80.80;;;;;;;;;;4992500;28;20411;-47
2023/10/01 02:12:57;;;;;;;244.87;82.17;;;;;;;;;;4992341;28;21049;-48
2023/10/01 02:15:24;;;;;;;243.37;80.57;;;;;;;;;;4992453;28;20914;-46
2023/10/01 02:17:52;;;;;;;241.17;78.90;;;;;;;;;;4992520;28;20408;-48
2023/10/01 02:20:22;;;;;;;246.53;83.53;;;;;;;;;;4992468;28;20443;-48
2023/10/01 02:22:49;;;;;;;242.17;81.50;;;;;;;;;;4990469;28;20443;-47
2023/10/01 02:25:16;;;;;;;243.27;81.33;;;;;;;;;;4983495;28;20411;-47
2023/10/01 02:28:06;;;;;;;243.17;82.43;;;;;;;;;;4977226;28;20470;-47
2023/10/01 02:30:32;;;;;;;244.17;80.60;;;;;;;;;;4988857;28;20794;-47
2023/10/01 02:33:17;;;;;;;243.50;82.03;;;;;;;;;;4972699;28;20438;-47
2023/10/01 02:35:49;;;;;;;241.47;78.87;;;;;;;;;;4973134;28;20474;-47
2023/10/01 02:41:08;;;;;;;243.20;80.07;;;;;;;;;;4975335;28;20487;-47
2023/10/01 02:43:34;;;;;;;242.80;81.00;;;;;;;;;;4986270;28;20934;-49
2023/10/01 02:46:11;;;;;;;242.37;78.87;;;;;;;;;;4982541;28;20455;-47
2023/10/01 02:48:40;;;;;;;241.67;78.00;;;;;;;;;;4979967;28;20776;-48
2023/10/01 02:51:15;;;;;;;244.57;83.07;;;;;;;;;;4988296;28;20424;-47
2023/10/01 02:54:05;;;;;;;243.07;80.77;;;;;;;;;;4973506;28;20928;-46
2023/10/01 02:56:32;;;;;;;241.63;79.07;;;;;;;;;;4992115;28;20402;-47
2023/10/01 02:59:09;;;;;;;243.03;78.53;;;;;;;;;;4972822;28;20436;-47
2023/10/01 03:01:39;;;;;;;241.80;79.20;;;;;;;;;;4989620;28;20983;-47
2023/10/01 03:04:15;;;;;;;246.17;84.33;;;;;;;;;;4978236;28;20433;-47
2023/10/01 03:06:42;;;;;;;245.10;84.27;;;;;;;;;;4983720;28;20551;-48
2023/10/01 03:09:22;;;;;;;241.10;77.77;;;;;;;;;;4984798;28;20432;-47
2023/10/01 03:11:48;;;;;;;244.83;82.50;;;;;;;;;;4977292;28;20502;-47
2023/10/01 03:14:20;;;;;;;245.77;82.70;;;;;;;;;;4990952;28;20422;-47
2023/10/01 03:16:53;;;;;;;244.10;80.10;;;;;;;;;;4972687;28;20407;-47
2023/10/01 03:19:25;;;;;;;242.83;79.37;;;;;;;;;;4990717;28;20412;-47
2023/10/01 03:24:39;;;;;;;244.70;81.23;;;;;;;;;;4985600;28;20455;-48
2023/10/01 03:27:25;;;;;;;242.90;79.00;;;;;;;;;;4981819;28;20932;-47
2023/10/01 03:30:20;;;;;;;242.93;79.47;;;;;;;;;;4981072;28;20419;-48
2023/10/01 03:32:40;;;;;;;242.77;78.60;;;;;;;;;;4983717;28;20455;-49
2023/10/01 03:35:08;;;;;;;243.27;77.37;;;;;;;;;;4976310;28;20907;-48
2023/10/01 03:37:43;;;;;;;243.77;80.80;;;;;;;;;;4995276;28;20411;-46
2023/10/01 03:40:18;;;;;;;241.53;77.97;;;;;;;;;;4975998;28;20418;-48
2023/10/01 03:42:50;;;;;;;240.77;76.50;;;;;;;;;;4993353;28;20473;-47
2023/10/01 03:47:43;;;;;;;241.60;78.00;;;;;;;;;;4984371;28;20412;-49
2023/10/01 03:50:15;;;;;;;243.27;80.83;;;;;;;;;;4982330;28;20412;-47
2023/10/01 03:52:41;;;;;;;245.07;81.47;;;;;;;;;;4991418;28;20432;-48
2023/10/01 03:57:55;;;;;;;244.00;80.07;;;;;;;;;;4995494;28;20547;-46
2023/10/01 04:00:41;;;;;;;243.57;80.00;;;;;;;;;;4976827;28;20418;-48
2023/10/01 04:03:08;;;;;;;242.53;79.67;;;;;;;;;;4992118;28;20943;-47
2023/10/01 04:05:34;;;;;;;241.77;78.27;;;;;;;;;;4982019;28;20464;-48
2023/10/01 04:08:08;;;;;;;242.80;79.70;;;;;;;;;;4984082;28;20916;-48
2023/10/01 04:10:35;;;;;;;243.27;83.33;;;;;;;;;;4988781;28;20408;-48
2023/10/01 04:13:20;;;;;;;247.57;85.93;;;;;;;;;;4977087;28;20471;-46
2023/10/01 04:15:48;;;;;;;244.27;81.27;;;;;;;;;;4994307;28;20399;-47
2023/10/01 04:23:36;;;;;;;243.40;81.17;;;;;;;;;;4993249;28;20567;-48
2023/10/01 04:26:05;;;;;;;243.67;81.40;;;;;;;;;;4992261;28;20415;-46
2023/10/01 04:28:41;;;;;;;242.80;79.30;;;;;;;;;;4993867;28;20405;-47
2023/10/01 04:31:09;;;;;;;243.97;80.63;;;;;;;;;;4994077;28;20411;-47
2023/10/01 04:33:42;;;;;;;241.30;77.17;;;;;;;;;;4988646;28;20462;-48
2023/10/01 04:36:10;;;;;;;246.53;84.27;;;;;;;;;;4994104;28;20967;-47
2023/10/01 04:38:37;;;;;;;243.80;81.03;;;;;;;;;;4986476;28;20911;-49
2023/10/01 04:41:03;;;;;;;242.43;78.40;;;;;;;;;;4993764;28;20466;-46
2023/10/01 04:43:34;;;;;;;240.77;78.07;;;;;;;;;;4993944;28;20835;-48
2023/10/01 04:46:08;;;;;;;244.03;81.37;;;;;;;;;;4994170;28;20459;-46
2023/10/01 04:48:36;;;;;;;243.73;80.50;;;;;;;;;;4985120;28;20408;-46
2023/10/01 04:51:07;;;;;;;243.70;79.37;;;;;;;;;;4993706;28;20412;-47
2023/10/01 04:53:33;;;;;;;243.87;81.53;;;;;;;;;;4993861;28;20920;-46
2023/10/01 04:56:05;;;;;;;244.27;80.07;;;;;;;;;;4993789;28;20520;-47
2023/10/01 04:58:32;;;;;;;242.70;79.30;;;;;;;;;;4993876;28;20773;-48
2023/10/01 05:01:01;;;;;;;246.20;83.13;;;;;;;;;;4993378;28;20990;-47
2023/10/01 05:03:39;;;;;;;241.50;79.97;;;;;;;;;;4993570;28;20438;-47
2023/10/01 05:06:15;;;;;;;246.93;85.17;;;;;;;;;;4993829;28;20466;-47
2023/10/01 05:08:42;;;;;;;243.10;80.50;;;;;;;;;;4986681;28;20404;-47
2023/10/01 05:11:12;;;;;;;242.20;81.27;;;;;;;;;;4993441;28;20407;-48
2023/10/01 05:13:39;;;;;;;246.50;84.27;;;;;;;;;;5011724;23;20590;-46
2023/10/01 05:16:06;;;;;;;246.43;84.60;;;;;;;;;;4993274;28;20407;-47
2023/10/01 05:18:33;;;;;;;244.50;81.67;;;;;;;;;;4993385;28;20930;-47
2023/10/01 05:20:59;;;;;;;243.80;80.43;;;;;;;;;;4993035;28;20491;-47
2023/10/01 05:23:25;;;;;;;245.07;80.30;;;;;;;;;;4993221;28;20471;-47
2023/10/01 05:25:51;;;;;;;242.37;79.70;;;;;;;;;;4993119;28;20435;-47
2023/10/01 05:28:23;;;;;;;245.60;81.67;;;;;;;;;;4993078;28;20454;-47
2023/10/01 05:30:57;;;;;;;243.67;80.70;;;;;;;;;;4993049;28;20950;-47
2023/10/01 05:33:24;;;;;;;241.37;78.67;;;;;;;;;;4993169;28;20435;-47
2023/10/01 05:35:54;;;;;;;242.20;80.00;;;;;;;;;;4993066;28;20424;-47
2023/10/01 05:38:21;;;;;;;247.60;83.73;;;;;;;;;;4992879;28;20424;-47
2023/10/01 05:40:52;;;;;;;244.17;80.50;;;;;;;;;;4992596;28;20524;-47
2023/10/01 05:43:18;;;;;;;243.47;81.00;;;;;;;;;;4993142;28;20433;-47
2023/10/01 05:45:50;;;;;;;245.47;84.43;;;;;;;;;;4999590;28;20408;-47
2023/10/01 05:48:19;;;;;;;249.00;86.33;;;;;;;;;;4992847;28;20499;-47
2023/10/01 05:50:49;;;;;;;245.60;82.83;;;;;;;;;;4992351;28;20408;-47
2023/10/01 05:53:17;;;;;;;243.83;82.13;;;;;;;;;;4992590;28;20850;-47
2023/10/01 05:55:43;;;;;;;242.70;78.73;;;;;;;;;;4992778;28;20432;-47
2023/10/01 05:58:12;;;;;;;243.60;80.13;;;;;;;;;;4992521;28;20420;-47
2023/10/01 06:00:45;;;;;;;250.10;84.40;;;;;;;;;;4992307;28;20420;-47
2023/10/01 06:03:18;;;;;;;243.47;83.30;;;;;;;;;;4992540;28;20451;-47
2023/10/01 06:05:50;;;;;;;246.30;83.17;;;;;;;;;;4992619;28;20752;-47
2023/10/01 06:08:17;;;;;;;244.77;79.93;;;;;;;;;;4992488;28;20527;-47
2023/10/01 06:10:59;;;;;;;254.13;88.37;;;;;;;;;;4992207;28;20442;-47
2023/10/01 06:13:25;;;;;;;243.73;81.00;;;;;;;;;;4992618;28;20451;-47
2023/10/01 06:15:52;;;;;;;248.20;87.17;;;;;;;;;;4992215;28;20541;-47
2023/10/01 06:18:20;;;;;;;246.87;85.63;;;;;;;;;;4992421;28;20404;-47
2023/10/01 06:20:46;;;;;;;248.83;86.47;;;;;;;;;;4985830;28;20415;-47
2023/10/01 06:23:13;;;;;;;242.60;81.53;;;;;;;;;;4992227;28;20424;-47
2023/10/01 06:25:43;;;;;;;244.43;83.77;;;;;;;;;;4992413;28;20444;-47
2023/10/01 06:28:09;;;;;;;246.17;84.27;;;;;;;;;;4992171;28;20416;-47
2023/10/01 06:30:43;;;;;;;250.57;87.20;;;;;;;;;;4992088;28;20412;-47
2023/10/01 06:33:24;;;;;;;244.73;82.63;;;;;;;;;;4992129;28;21070;-47
2023/10/01 06:36:15;;;;;;;247.00;85.53;;;;;;;;;;4992102;28;20930;-47
2023/10/01 06:38:36;;;;;;;244.07;83.50;;;;;;;;;;4972739;28;20928;-47
2023/10/01 06:41:06;;;;;;;247.90;86.97;;;;;;;;;;4990657;28;20546;-47
2023/10/01 06:43:32;;;;;;;245.03;84.07;;;;;;;;;;4984037;28;20450;-47
2023/10/01 06:45:59;;;;;;;246.07;84.87;;;;;;;;;;4995415;28;20491;-47
2023/10/01 06:48:27;;;;;;;247.27;86.87;;;;;;;;;;4991850;28;20980;-47
2023/10/01 06:50:53;;;;;;;245.67;84.57;;;;;;;;;;4991902;28;20416;-47
2023/10/01 06:53:43;;;;;;;249.27;89.93;;;;;;;;;;4991313;28;20471;-47
2023/10/01 06:56:09;;;;;;;247.97;86.97;;;;;;;;;;4991940;28;20408;-47
2023/10/01 06:58:35;;;;;;;248.83;88.17;;;;;;;;;;4984055;28;20426;-47
2023/10/01 07:01:02;;;;;;;247.17;85.83;;;;;;;;;;4996539;28;20518;-47
2023/10/01 07:03:30;;;;;;;249.53;89.27;;;;;;;;;;4992577;28;20438;-47
2023/10/01 07:06:01;;;;;;;252.17;92.67;;;;;;;;;;4991864;28;20414;-47
2023/10/01 07:08:43;;;;;;;251.27;91.93;;;;;;;;;;4991823;28;20420;-47
2023/10/01 07:11:11;;;;;;;250.47;92.87;;;;;;;;;;4993607;28;20491;-47
2023/10/01 07:13:42;;;;;;;249.40;90.97;;;;;;;;;;4995494;28;20462;-46
2023/10/01 07:16:08;;;;;;;249.27;90.37;;;;;;;;;;4995384;28;20442;-46
2023/10/01 07:18:37;;;;;;;250.37;92.17;;;;;;;;;;4992802;28;20919;-47
2023/10/01 07:21:09;;;;;;;250.23;90.70;;;;;;;;;;4995308;28;20490;-46
2023/10/01 07:23:35;;;;;;;250.97;92.63;;;;;;;;;;4987964;28;20480;-46
2023/10/01 07:26:01;;;;;;;251.77;92.47;;;;;;;;;;4995503;28;20446;-47
2023/10/01 07:28:27;;;;;;;249.93;90.20;;;;;;;;;;4995107;28;20924;-47
2023/10/01 07:30:56;;;;;;;258.10;99.50;;;;;;;;;;4995129;28;20432;-47
2023/10/01 07:33:22;;;;;;;255.27;98.33;;;;;;;;;;4995152;28;20814;-47
2023/10/01 07:36:01;;;;;;;255.30;103.43;;;;;;;;;;4995179;28;20913;-47
2023/10/01 07:38:32;;;;;;;255.37;101.63;;;;;;;;;;4996614;28;20434;-47
2023/10/01 07:40:58;;;;;;;251.53;98.53;;;;;;;;;;4995014;28;20542;-47
2023/10/01 07:46:28;;;;;;;253.03;106.13;;;;;;;;;;4951201;28;20232;-46
2023/10/01 07:48:56;;;;;;;251.77;103.97;;;;;;;;;;4956571;28;20430;-47
2023/10/01 07:51:26;;;;;;;247.77;96.20;;;;;;;;;;4945052;28;20442;-47
2023/10/01 07:53:53;;;;;;;247.33;96.90;;;;;;;;;;4955561;28;20501;-47
2023/10/01 07:56:21;;;;;;;246.40;94.50;;;;;;;;;;4947462;28;20440;-47
2023/10/01 07:58:48;;;;;;;246.03;92.37;;;;;;;;;;4942695;29;20413;-47
2023/10/01 08:04:06;;;;;;;250.73;98.10;;;;;;;;;;4945387;28;20457;-47
2023/10/01 08:06:41;;;;;;;248.27;95.53;;;;;;;;;;4956737;28;20869;-47
2023/10/01 08:09:11;;;;;;;247.20;96.23;;;;;;;;;;4938952;28;20497;-47
2023/10/01 08:11:58;;;;;;;248.97;96.87;;;;;;;;;;4950862;28;20769;-47
2023/10/01 08:14:26;;;;;;;246.77;92.20;;;;;;;;;;4943211;28;20444;-47
2023/10/01 08:16:53;;;;;;;252.20;99.97;;;;;;;;;;4945925;29;20410;-47
2023/10/01 08:19:20;;;;;;;256.43;104.07;;;;;;;;;;4955189;28;20935;-46
2023/10/01 08:21:50;;;;;;;248.37;94.93;;;;;;;;;;4948403;28;20450;-47
2023/10/01 08:24:18;;;;;;;249.83;99.97;;;;;;;;;;4955050;28;20498;-47
2023/10/01 08:27:04;;;;;;;250.80;99.90;;;;;;;;;;4955699;28;20409;-47
2023/10/01 08:29:59;;;;;;;247.20;93.07;;;;;;;;;;4955285;28;20427;-47
2023/10/01 08:32:22;;;;;;;247.93;96.87;;;;;;;;;;4956263;28;20495;-46
2023/10/01 08:37:31;;;;;;;248.80;98.27;;;;;;;;;;4951220;28;20982;-46
2023/10/01 08:39:57;;;;;;;248.60;97.43;;;;;;;;;;4951948;28;20946;-46
2023/10/01 08:42:28;;;;;;;246.13;93.63;;;;;;;;;;4955186;28;20826;-46
2023/10/01 08:45:02;;;;;;;243.47;92.23;;;;;;;;;;4954894;28;20435;-47
2023/10/01 08:47:37;;;;;;;244.47;93.60;;;;;;;;;;4955297;28;20432;-46
2023/10/01 08:53:01;;;;;;;254.67;102.13;;;;;;;;;;4953293;28;20450;-47
2023/10/01 08:55:35;;;;;;;256.33;105.27;;;;;;;;;;4954601;28;20429;-46
2023/10/01 08:58:13;;;;;;;252.47;100.17;;;;;;;;;;4949252;28;20417;-46
2023/10/01 09:00:48;;;;;;;254.73;108.23;;;;;;;;;;4935948;29;20411;-46
2023/10/01 09:03:26;;;;;;;252.30;101.57;;;;;;;;;;4968930;28;20427;-47
2023/10/01 09:06:05;;;;;;;251.20;105.57;;;;;;;;;;4974060;28;20408;-46
2023/10/01 09:08:32;;;;;;;252.93;112.67;;;;;;;;;;4961727;28;20405;-46
2023/10/01 09:11:10;;;;;;;256.53;113.20;;;;;;;;;;4962858;28;20421;-47
2023/10/01 09:13:45;;;;;;;259.07;115.63;;;;;;;;;;4965774;28;20492;-47
2023/10/01 09:16:11;;;;;;;253.07;114.13;;;;;;;;;;4957509;28;20912;-47
2023/10/01 09:18:38;;;;;;;251.37;113.03;;;;;;;;;;4973744;28;20401;-47
2023/10/01 09:21:08;;;;;;;254.57;120.83;;;;;;;;;;4953174;28;20465;-47
2023/10/01 09:23:54;;;;;;;253.87;116.47;;;;;;;;;;4969900;28;20413;-46
2023/10/01 09:26:37;;;;;;;254.33;121.53;;;;;;;;;;4959372;28;20792;-47
2023/10/01 09:29:13;;;;;;;251.60;118.57;;;;;;;;;;4967040;28;20409;-47
2023/10/01 09:31:52;;;;;;;254.83;121.63;;;;;;;;;;4963878;28;20424;-47
2023/10/01 09:34:31;;;;;;;254.93;122.70;;;;;;;;;;4946564;28;20438;-47
2023/10/01 09:36:57;;;;;;;251.70;121.97;;;;;;;;;;4940511;29;20418;-47
2023/10/01 09:39:36;;;;;;;255.27;129.87;;;;;;;;;;4953118;28;20438;-46
2023/10/01 09:42:03;;;;;;;253.67;123.30;;;;;;;;;;4935132;29;20450;-47
2023/10/01 09:44:31;;;;;;;254.87;127.13;;;;;;;;;;4953308;28;20589;-46
2023/10/01 09:47:07;;;;;;;254.43;126.03;;;;;;;;;;4939517;28;20431;-47
2023/10/01 09:49:33;;;;;;;254.70;128.70;;;;;;;;;;4947210;29;20890;-47
2023/10/01 09:52:00;;;;;;;254.13;130.63;;;;;;;;;;4945908;28;20414;-47
2023/10/01 09:54:28;;;;;;;273.83;144.83;;;;;;;;;;4937766;29;20441;-47
2023/10/01 09:56:56;;;;;;;258.60;139.10;;;;;;;;;;4953132;28;20494;-47
2023/10/01 09:59:26;;;;;;;257.23;142.47;;;;;;;;;;4935042;29;20963;-46
2023/10/01 10:01:52;;;;;;;258.13;142.10;;;;;;;;;;4951406;29;20956;-47
2023/10/01 10:04:20;;;;;;;259.93;141.40;;;;;;;;;;4940847;28;20435;-47
2023/10/01 10:06:59;;;;;;;255.83;140.93;;;;;;;;;;4944152;29;20420;-47
2023/10/01 10:09:26;;;;;;;259.20;142.70;;;;;;;;;;4953552;28;20449;-47
2023/10/01 10:11:52;;;;;;;256.30;142.13;;;;;;;;;;4953284;29;20422;-47
2023/10/01 10:14:36;;;;;;;256.50;141.97;;;;;;;;;;4953748;28;20429;-47
2023/10/01 10:17:18;;;;;;;258.07;142.00;;;;;;;;;;4934715;29;20470;-47
2023/10/01 10:20:15;;;;;;;256.10;138.83;;;;;;;;;;4953607;28;20413;-47
2023/10/01 10:23:02;;;;;;;253.20;138.17;;;;;;;;;;4935110;28;20492;-47
2023/10/01 10:25:28;;;;;;;259.13;142.10;;;;;;;;;;4951454;28;20549;-47
2023/10/01 10:27:56;;;;;;;251.90;131.53;;;;;;;;;;4950993;29;20847;-47
2023/10/01 10:30:22;;;;;;;253.70;137.03;;;;;;;;;;4952279;28;20430;-47
2023/10/01 10:33:14;;;;;;;252.60;134.20;;;;;;;;;;4952980;28;20414;-47
2023/10/01 10:35:47;;;;;;;252.93;135.93;;;;;;;;;;4947778;28;20449;-47
2023/10/01 10:38:31;;;;;;;258.27;140.33;;;;;;;;;;4946822;29;20433;-47
2023/10/01 10:41:06;;;;;;;258.87;139.53;;;;;;;;;;4950222;28;21007;-47
2023/10/01 10:43:34;;;;;;;262.17;137.20;;;;;;;;;;4950317;28;20429;-47
2023/10/01 10:46:00;;;;;;;252.03;137.77;;;;;;;;;;4949763;28;20417;-46
2023/10/01 10:48:45;;;;;;;258.17;138.37;;;;;;;;;;4955551;28;20593;-46
2023/10/01 10:51:18;;;;;;;256.73;139.27;;;;;;;;;;4943548;28;20406;-46
2023/10/01 10:53:45;;;;;;;254.93;138.07;;;;;;;;;;4946880;28;20437;-47
2023/10/01 10:56:14;;;;;;;261.23;142.60;;;;;;;;;;4950448;28;20406;-47
2023/10/01 10:59:01;;;;;;;258.77;139.80;;;;;;;;;;4939879;29;20406;-47
2023/10/01 11:01:27;;;;;;;254.47;135.73;;;;;;;;;;4956392;28;20503;-47
2023/10/01 11:03:55;;;;;;;253.10;132.03;;;;;;;;;;4937966;29;20441;-47
2023/10/01 11:06:43;;;;;;;254.87;133.77;;;;;;;;;;4954362;29;20760;-47
2023/10/01 11:09:24;;;;;;;252.40;138.80;;;;;;;;;;4941790;28;20776;-47
2023/10/01 11:11:51;;;;;;;256.33;142.23;;;;;;;;;;4951229;28;20418;-47
2023/10/01 11:14:17;;;;;;;257.63;147.73;;;;;;;;;;4947249;28;20477;-47
2023/10/01 11:16:44;;;;;;;257.97;150.77;;;;;;;;;;4943262;29;20410;-47
2023/10/01 11:19:14;;;;;;;256.60;149.30;;;;;;;;;;4955195;28;20414;-47
2023/10/01 11:22:00;;;;;;;257.00;151.87;;;;;;;;;;4937766;29;20454;-48
2023/10/01 11:24:30;;;;;;;255.23;147.47;;;;;;;;;;4937330;29;20449;-47
2023/10/01 11:27:14;;;;;;;256.33;147.50;;;;;;;;;;4954560;28;20410;-47
2023/10/01 11:29:44;;;;;;;252.93;145.10;;;;;;;;;;4941421;28;20406;-48
2023/10/01 11:32:16;;;;;;;256.00;147.97;;;;;;;;;;4949110;29;20410;-46
2023/10/01 11:34:45;;;;;;;255.63;147.00;;;;;;;;;;4947888;28;20438;-47
2023/10/01 11:37:18;;;;;;;256.17;150.10;;;;;;;;;;4942650;29;20787;-46
2023/10/01 11:39:52;;;;;;;259.00;155.20;;;;;;;;;;4954503;28;20417;-47
2023/10/01 11:42:27;;;;;;;253.27;145.63;;;;;;;;;;4937410;29;20449;-47
2023/10/01 11:44:54;;;;;;;253.97;143.53;;;;;;;;;;4936964;29;20529;-47
2023/10/01 11:47:33;;;;;;;254.93;146.67;;;;;;;;;;4952638;28;20425;-47
2023/10/01 11:50:07;;;;;;;254.10;144.20;;;;;;;;;;4942808;28;20441;-46
2023/10/01 11:52:33;;;;;;;252.60;142.90;;;;;;;;;;4947561;29;20417;-47
2023/10/01 11:54:59;;;;;;;253.43;145.63;;;;;;;;;;4949464;28;20975;-47
2023/10/01 11:57:31;;;;;;;257.43;147.57;;;;;;;;;;4939249;29;20423;-47
2023/10/01 11:59:58;;;;;;;253.70;144.30;;;;;;;;;;4956293;28;20498;-47
2023/10/01 12:02:31;;;;;;;258.23;154.50;;;;;;;;;;4937449;29;20882;-47
2023/10/01 12:04:58;;;;;;;257.63;146.90;;;;;;;;;;4952391;28;20534;-47
2023/10/01 12:07:31;;;;;;;256.03;144.13;;;;;;;;;;4943998;28;20410;-47
2023/10/01 12:09:57;;;;;;;254.57;142.83;;;;;;;;;;4945695;28;20898;-46
2023/10/01 12:12:39;;;;;;;254.20;140.40;;;;;;;;;;4951153;28;20478;-47
2023/10/01 12:17:53;;;;;;;253.83;141.80;;;;;;;;;;4954150;28;20421;-47
2023/10/01 12:20:22;;;;;;;255.17;143.23;;;;;;;;;;4936688;29;20860;-48
2023/10/01 12:23:10;;;;;;;251.93;137.70;;;;;;;;;;4954440;29;20465;-47
2023/10/01 12:25:46;;;;;;;251.60;140.33;;;;;;;;;;4938917;28;20434;-47
2023/10/01 12:28:15;;;;;;;254.40;146.10;;;;;;;;;;4951078;29;20544;-46
2023/10/01 12:30:41;;;;;;;253.37;138.30;;;;;;;;;;4944984;28;20414;-46
2023/10/01 12:33:08;;;;;;;255.60;146.50;;;;;;;;;;4943002;29;20425;-47
2023/10/01 12:35:34;;;;;;;255.00;146.20;;;;;;;;;;4952691;28;20437;-47
2023/10/01 12:40:49;;;;;;;255.37;146.27;;;;;;;;;;4946354;29;20412;-47
2023/10/01 12:46:00;;;;;;;253.57;143.83;;;;;;;;;;4939718;29;20410;-47
2023/10/01 12:48:27;;;;;;;253.40;141.07;;;;;;;;;;4947749;28;20413;-47
2023/10/01 12:53:48;;;;;;;251.73;138.07;;;;;;;;;;4943137;28;20433;-47
2023/10/01 12:56:15;;;;;;;251.70;138.70;;;;;;;;;;4951394;28;20403;-47
2023/10/01 12:58:53;;;;;;;249.30;133.47;;;;;;;;;;4936032;29;20823;-46
2023/10/01 13:01:32;;;;;;;253.10;139.50;;;;;;;;;;4935925;29;20458;-47
2023/10/01 13:04:22;;;;;;;254.27;141.27;;;;;;;;;;4953920;28;20436;-47
2023/10/01 13:06:48;;;;;;;253.30;138.37;;;;;;;;;;4937303;28;20418;-47
2023/10/01 13:12:06;;;;;;;251.60;136.33;;;;;;;;;;4942770;28;20425;-48
2023/10/01 13:14:32;;;;;;;250.63;138.07;;;;;;;;;;4944978;29;20577;-47
2023/10/01 13:17:00;;;;;;;251.07;139.27;;;;;;;;;;4949430;28;20415;-48
2023/10/01 13:19:33;;;;;;;252.13;136.73;;;;;;;;;;4937046;29;20534;-48
2023/10/01 13:21:59;;;;;;;252.80;139.20;;;;;;;;;;4954792;28;20548;-47
2023/10/01 13:24:26;;;;;;;257.27;145.17;;;;;;;;;;4936273;28;20949;-47
2023/10/01 13:27:05;;;;;;;251.47;135.90;;;;;;;;;;4949395;28;20433;-47
2023/10/01 13:29:31;;;;;;;254.30;138.63;;;;;;;;;;4942735;28;20466;-47
2023/10/01 13:32:02;;;;;;;251.40;134.50;;;;;;;;;;4943261;29;20406;-47
2023/10/01 13:34:48;;;;;;;255.73;140.23;;;;;;;;;;4948635;28;20442;-47
2023/10/01 13:37:42;;;;;;;256.43;137.43;;;;;;;;;;4938250;29;20517;-48
2023/10/01 13:40:14;;;;;;;258.20;141.27;;;;;;;;;;4953738;28;20508;-47
2023/10/01 14:10:05;;;;;;;252.20;135.43;;;;;;;;;;4946085;29;20421;-47
2023/10/01 14:15:22;;;;;;;251.43;125.97;;;;;;;;;;4951169;28;20528;-47
2023/10/01 14:17:53;;;;;;;252.30;127.40;;;;;;;;;;4934802;29;20839;-47
2023/10/01 14:23:22;;;;;;;253.83;128.07;;;;;;;;;;4935371;29;21008;-47
2023/10/01 14:25:58;;;;;;;253.90;127.17;;;;;;;;;;4950744;29;20505;-47
2023/10/01 14:28:25;;;;;;;255.20;127.50;;;;;;;;;;4940107;28;20446;-48
2023/10/01 14:30:58;;;;;;;253.40;123.10;;;;;;;;;;4944040;29;20410;-47
2023/10/01 14:33:25;;;;;;;257.10;127.20;;;;;;;;;;4946412;28;20415;-48
2023/10/01 14:36:04;;;;;;;254.90;127.23;;;;;;;;;;4937218;29;20410;-47
2023/10/01 14:38:42;;;;;;;253.50;125.40;;;;;;;;;;4953042;28;20421;-47
2023/10/01 14:41:15;;;;;;;253.07;124.37;;;;;;;;;;4947768;29;20492;-47
2023/10/01 14:43:48;;;;;;;252.73;125.90;;;;;;;;;;4952743;28;20434;-48
2023/10/01 14:46:18;;;;;;;255.63;128.97;;;;;;;;;;4937992;28;20426;-46
2023/10/01 14:48:47;;;;;;;254.17;128.73;;;;;;;;;;4946087;29;20422;-47
2023/10/01 14:51:31;;;;;;;253.37;129.40;;;;;;;;;;4945135;28;20453;-47
2023/10/01 14:53:57;;;;;;;252.37;125.87;;;;;;;;;;4940692;28;20445;-47
2023/10/01 14:56:23;;;;;;;253.50;126.80;;;;;;;;;;4950609;28;20418;-47
2023/10/01 14:58:52;;;;;;;252.47;129.10;;;;;;;;;;4934367;29;20477;-47
2023/10/01 15:01:19;;;;;;;253.80;129.87;;;;;;;;;;4952695;29;20964;-47
2023/10/01 15:03:53;;;;;;;250.60;124.30;;;;;;;;;;4938314;28;20482;-48
2023/10/01 15:06:19;;;;;;;249.60;122.43;;;;;;;;;;4946028;29;20405;-48
2023/10/01 15:08:45;;;;;;;253.57;123.80;;;;;;;;;;4945355;28;20877;-48
2023/10/01 15:11:11;;;;;;;255.07;128.53;;;;;;;;;;4938179;28;20751;-47
2023/10/01 15:13:48;;;;;;;258.00;132.03;;;;;;;;;;4952710;28;20433;-47
2023/10/01 15:16:17;;;;;;;252.40;120.33;;;;;;;;;;4934312;29;20412;-47
2023/10/01 15:18:43;;;;;;;258.87;128.43;;;;;;;;;;4951775;28;20414;-46
2023/10/01 15:21:10;;;;;;;255.53;122.43;;;;;;;;;;4940668;28;20949;-47
2023/10/01 15:23:44;;;;;;;257.93;126.83;;;;;;;;;;4942745;28;20414;-47
2023/10/01 15:26:11;;;;;;;256.50;120.70;;;;;;;;;;4946760;29;20429;-47
2023/10/01 15:28:37;;;;;;;255.50;120.50;;;;;;;;;;4936723;29;20421;-47
2023/10/01 15:31:03;;;;;;;253.93;118.60;;;;;;;;;;4953316;28;20394;-47
2023/10/01 15:33:29;;;;;;;259.17;120.53;;;;;;;;;;4938562;28;20418;-47
2023/10/01 15:35:55;;;;;;;254.77;118.97;;;;;;;;;;4951214;28;20414;-46